Flight Information

DEPARTURE
CHINO, CA
Elevation:
650
Runways:
3/21 - 4919x150 - ASPH-G
8R/26L - 7000x150 - ASPH-G
8L/26R - 4858x150 - ASPH-G
Active PE Departure:
26L - 26R
Current PE ATIS:
V
Altimeter:
30.13
Remarks:
ATIS:
125.85 909-393-5365
Ground:
121.6
Tower:
118.5
DESTINATION
,
Elevation:
TPA:
1000 (est.)


6757.1 NM74° True-14° Var60° HDG

Flight Plan:
(click to file on line)

1. Type
2. Aircraft Identification
3. Aircraft Type / Special Equipment
4. True Airspeed
kts
5. Departure Airport
(ICAO code)
6. Arriving Airport
(ICAO code)
7. Cruising Altitude
ft
8. Alternate Airport
(ICAO code)
9. Route of Flight
10. Remarks


00:00:00 Departure ATIS: Destination ATIS:

Clearance Limit:
Route:
Altitude: Expect in minutes
Frequency:
Transponder: (7500 Hijack / 7600 Lost Comms / 7700 Emergency)


KCNO 032353Z 23008KT 10SM FEW100 SCT200 21/08 A3005 RMK AO2 SLP172 T02110083 10233 20150 55004
Time: 2022-12-03T23:53:00Z
1670647955
Winds: 230 @ 8 kts
Visibility: 10.0 sm
Clouds (AGL): FEW 10000
SCT 20000
Temperature: 21.1 C
Dew Point: 8.3 C
Pressure: 30.050198 in Hgbr


Notes:

Data extracted from FAA Digital Chart Supplement. Effective: 0901Z Thursday, 27 JAN 2022 to 0900z Thursday, 24 MAR 2022
Current ATIS data is provided courtisy of PilotEdge.